Terminal Aerodrome Forecast
Issued by NWS Twin Cities, MN

Home | Current Version | Previous Version | Graphics & Text | Print | Product List | Glossary On
Versions: 1 2 3 4 5 6 7 8 9 10 11 12 13 14 15 16 17 18 19 20 21 22 23 24 25
970
FTUS43 KMPX 210836 AAA
TAFMSP
TAF AMD
KMSP 210836Z 2109/2212 15007KT 6SM BR BKN006 OVC020
     FM211500 24010KT 4SM -DZ BR BKN007 OVC015
     FM211800 28012G20KT P6SM OVC015
     FM212200 28014G22KT P6SM BKN025
     FM220300 26009KT P6SM SCT025 BKN050=

USA.gov is the U.S. government's official web portal to all federal, state and local government web resources and services.